createdAt,value
2017-07-14T00:01:06.878Z,57.80
2017-07-14T00:03:34.944Z,57.70
2017-07-14T00:06:03.039Z,57.80
2017-07-14T00:08:31.867Z,57.90
2017-07-14T00:10:59.941Z,57.90
2017-07-14T00:13:28.016Z,58.70
2017-07-14T00:15:56.084Z,58.00
2017-07-14T00:18:24.172Z,58.30
2017-07-14T00:20:52.229Z,58.30
2017-07-14T00:23:20.302Z,58.20
2017-07-14T00:25:48.395Z,58.40
2017-07-14T00:28:16.548Z,58.90
2017-07-14T00:30:44.608Z,58.70
2017-07-14T00:33:12.679Z,58.90
2017-07-14T00:35:40.744Z,58.80
2017-07-14T00:38:08.830Z,58.80
2017-07-14T00:40:36.887Z,58.70
2017-07-14T00:43:04.952Z,59.20
2017-07-14T00:45:33.806Z,59.10
2017-07-14T00:48:01.872Z,59.10
2017-07-14T00:50:29.960Z,59.30
2017-07-14T00:52:58.026Z,59.30
2017-07-14T00:55:26.104Z,59.60
2017-07-14T00:57:54.177Z,59.50
2017-07-14T01:00:22.244Z,59.60
2017-07-14T01:02:50.329Z,60.00
2017-07-14T01:05:18.400Z,59.90
2017-07-14T01:07:46.464Z,60.20
2017-07-14T01:10:14.535Z,60.40
2017-07-14T01:12:42.596Z,60.00
2017-07-14T01:15:10.662Z,60.00
2017-07-14T01:17:38.733Z,60.50
2017-07-14T01:20:06.809Z,60.60
2017-07-14T01:22:34.878Z,60.60
2017-07-14T01:25:02.953Z,60.60
2017-07-14T01:27:31.059Z,60.30
2017-07-14T01:29:59.125Z,61.00
2017-07-14T01:32:27.429Z,60.70
2017-07-14T01:34:55.493Z,61.30
2017-07-14T01:37:23.559Z,61.50
2017-07-14T01:39:51.620Z,61.80
2017-07-14T01:42:19.700Z,62.00
2017-07-14T01:44:47.772Z,61.50
2017-07-14T01:47:16.603Z,62.00
2017-07-14T01:49:44.674Z,61.90
2017-07-14T01:52:12.749Z,61.90
2017-07-14T01:54:40.824Z,61.80
2017-07-14T01:57:08.895Z,62.00
2017-07-14T01:59:36.980Z,61.70
2017-07-14T02:02:05.043Z,62.00
2017-07-14T02:04:33.110Z,62.00
2017-07-14T02:07:01.181Z,62.00
2017-07-14T02:09:29.252Z,62.00
2017-07-14T02:11:57.324Z,61.90
2017-07-14T02:14:25.407Z,61.90
2017-07-14T02:16:53.469Z,61.90
2017-07-14T02:19:21.543Z,61.90
2017-07-14T02:21:49.617Z,61.80
2017-07-14T02:24:17.687Z,61.90
2017-07-14T02:26:45.760Z,61.80
2017-07-14T02:29:13.835Z,61.90
2017-07-14T02:31:41.927Z,61.90
2017-07-14T02:34:09.991Z,62.10
2017-07-14T02:36:38.501Z,62.20
2017-07-14T02:39:06.575Z,61.90
2017-07-14T02:41:34.682Z,61.80
2017-07-14T02:44:02.791Z,62.10
2017-07-14T02:46:30.852Z,61.90
2017-07-14T02:48:58.920Z,62.00
2017-07-14T02:51:26.993Z,62.00
2017-07-14T02:53:55.065Z,61.80
2017-07-14T02:56:23.140Z,61.80
2017-07-14T02:58:51.216Z,62.10
2017-07-14T03:01:19.289Z,61.80
2017-07-14T03:03:47.363Z,61.90
2017-07-14T03:06:15.429Z,61.90
2017-07-14T03:08:43.514Z,61.90
2017-07-14T03:11:11.577Z,61.80
2017-07-14T03:13:39.657Z,61.50
2017-07-14T03:16:07.740Z,61.20
2017-07-14T03:18:35.812Z,61.30
2017-07-14T03:21:03.884Z,61.40
2017-07-14T03:23:31.959Z,61.50
2017-07-14T03:26:00.026Z,61.30
2017-07-14T03:28:28.100Z,61.80
2017-07-14T03:30:56.177Z,61.80
2017-07-14T03:33:24.244Z,61.50
2017-07-14T03:35:52.320Z,61.60
2017-07-14T03:38:20.392Z,61.60
2017-07-14T03:40:48.987Z,61.80
2017-07-14T03:43:17.061Z,61.80
2017-07-14T03:45:45.135Z,61.80
2017-07-14T03:48:13.216Z,61.70
2017-07-14T03:50:42.088Z,61.40
2017-07-14T03:53:10.154Z,61.40
2017-07-14T03:55:38.228Z,61.70
2017-07-14T03:58:06.305Z,61.70
2017-07-14T04:00:34.382Z,62.40
2017-07-14T04:03:02.460Z,62.30
2017-07-14T04:05:30.520Z,62.10
2017-07-14T04:07:58.594Z,62.30
2017-07-14T04:10:26.666Z,62.50
2017-07-14T04:12:54.740Z,63.00
2017-07-14T04:15:22.819Z,62.80
2017-07-14T04:17:50.900Z,63.30
2017-07-14T04:20:19.009Z,63.40
2017-07-14T04:22:47.076Z,63.10
2017-07-14T04:25:15.153Z,63.30
2017-07-14T04:27:43.223Z,63.00
2017-07-14T04:30:11.299Z,62.80
2017-07-14T04:32:39.355Z,63.30
2017-07-14T04:35:07.440Z,63.20
2017-07-14T04:37:35.517Z,62.90
2017-07-14T04:40:03.602Z,62.50
2017-07-14T04:42:31.684Z,62.50
2017-07-14T04:44:59.776Z,62.60
2017-07-14T04:47:27.847Z,62.70
2017-07-14T04:49:55.920Z,62.70
2017-07-14T04:52:23.997Z,62.70
2017-07-14T04:54:52.094Z,62.60
2017-07-14T04:57:20.168Z,63.20
2017-07-14T04:59:48.268Z,63.10
2017-07-14T05:02:16.359Z,63.40
2017-07-14T05:04:44.433Z,63.60
2017-07-14T05:07:12.520Z,63.40
2017-07-14T05:09:40.610Z,62.20
2017-07-14T05:12:08.691Z,61.90
2017-07-14T05:14:36.769Z,62.00
2017-07-14T05:17:04.842Z,61.30
2017-07-14T05:19:32.947Z,61.60
2017-07-14T05:22:01.016Z,61.80
2017-07-14T05:24:29.156Z,61.40
2017-07-14T05:26:57.227Z,61.20
2017-07-14T05:29:25.323Z,61.80
2017-07-14T05:31:54.156Z,61.40
2017-07-14T05:34:22.234Z,61.30
2017-07-14T05:36:50.399Z,61.20
2017-07-14T05:39:18.474Z,61.10
2017-07-14T05:41:46.544Z,61.70
2017-07-14T05:44:14.643Z,61.20
2017-07-14T05:46:42.711Z,61.70
2017-07-14T05:49:10.786Z,60.70
2017-07-14T05:51:38.878Z,60.70
2017-07-14T05:54:06.948Z,60.00
2017-07-14T05:56:36.049Z,59.40
2017-07-14T05:59:04.175Z,58.80
2017-07-14T06:01:32.301Z,57.90
2017-07-14T06:04:00.376Z,57.80
2017-07-14T06:06:29.257Z,57.00
2017-07-14T06:08:57.341Z,56.90
2017-07-14T06:11:25.434Z,56.80
2017-07-14T06:13:53.516Z,56.90
2017-07-14T06:16:21.624Z,56.40
2017-07-14T06:18:49.702Z,55.60
2017-07-14T06:21:17.790Z,55.40
2017-07-14T06:23:45.892Z,54.50
2017-07-14T06:26:14.742Z,54.90
2017-07-14T06:28:43.166Z,54.90
2017-07-14T06:31:11.252Z,54.50
2017-07-14T06:33:39.397Z,54.30
2017-07-14T06:36:08.240Z,53.70
2017-07-14T06:38:36.330Z,53.60
2017-07-14T06:41:05.231Z,53.30
2017-07-14T06:43:33.337Z,52.60
2017-07-14T06:46:02.189Z,51.10
2017-07-14T06:48:30.275Z,51.00
2017-07-14T06:50:58.379Z,50.30
2017-07-14T06:53:26.493Z,49.30
2017-07-14T06:55:54.579Z,48.40
2017-07-14T06:58:22.661Z,47.90
2017-07-14T07:00:50.757Z,47.60
2017-07-14T07:03:19.614Z,47.50
2017-07-14T07:05:47.732Z,47.30
2017-07-14T07:08:15.867Z,47.70
2017-07-14T07:10:43.972Z,46.50
2017-07-14T07:13:12.064Z,47.10
2017-07-14T07:15:40.157Z,47.40
2017-07-14T07:18:08.244Z,48.00
2017-07-14T07:20:36.478Z,48.20
2017-07-14T07:23:04.578Z,48.30
2017-07-14T07:25:32.681Z,48.20
2017-07-14T07:28:00.775Z,48.30
2017-07-14T07:30:28.854Z,48.30
2017-07-14T07:32:57.717Z,49.00
2017-07-14T07:35:25.829Z,48.90
2017-07-14T07:37:53.894Z,48.20
2017-07-14T07:40:22.753Z,49.00
2017-07-14T07:42:50.825Z,48.90
2017-07-14T07:45:18.913Z,49.00
2017-07-14T07:47:53.270Z,49.00
2017-07-14T07:50:21.366Z,48.90
2017-07-14T07:52:49.457Z,49.70
2017-07-14T07:55:17.555Z,49.50
2017-07-14T07:57:46.410Z,49.10
2017-07-14T08:00:14.488Z,48.90
2017-07-14T08:03:00.293Z,48.60
2017-07-14T08:05:28.401Z,48.80
2017-07-14T08:07:56.505Z,48.20
2017-07-14T08:10:24.596Z,47.50
2017-07-14T08:12:52.669Z,47.40
2017-07-14T08:15:20.789Z,48.00
2017-07-14T08:17:48.902Z,47.60
2017-07-14T08:20:16.990Z,47.90
2017-07-14T08:22:45.077Z,47.80
2017-07-14T08:25:13.225Z,47.40
2017-07-14T08:27:41.309Z,46.00
2017-07-14T08:30:09.400Z,46.40
2017-07-14T08:32:37.490Z,45.60
2017-07-14T08:35:06.325Z,45.60
2017-07-14T08:37:34.417Z,44.90
2017-07-14T08:40:02.517Z,45.00
2017-07-14T08:42:31.368Z,46.00
2017-07-14T08:44:59.458Z,45.70
2017-07-14T08:47:27.543Z,45.30
2017-07-14T08:49:55.630Z,45.80
2017-07-14T08:52:24.477Z,46.20
2017-07-14T08:54:52.569Z,45.90
2017-07-14T08:57:20.656Z,45.50
2017-07-14T08:59:48.753Z,44.60
2017-07-14T09:02:17.603Z,45.00
2017-07-14T09:04:45.705Z,44.80
2017-07-14T09:07:13.797Z,43.80
2017-07-14T09:09:41.898Z,43.70
2017-07-14T09:12:09.997Z,43.70
2017-07-14T09:14:38.110Z,42.70
2017-07-14T09:17:06.238Z,42.80
2017-07-14T09:19:34.344Z,43.00
2017-07-14T09:22:03.200Z,42.10
2017-07-14T09:24:31.280Z,41.90
2017-07-14T09:27:00.274Z,43.00
2017-07-14T09:29:28.360Z,42.90
2017-07-14T09:31:56.469Z,43.50
2017-07-14T09:34:24.609Z,43.30
2017-07-14T09:36:53.559Z,44.30
2017-07-14T09:39:21.668Z,44.10
2017-07-14T09:41:49.818Z,44.30
2017-07-14T09:44:17.948Z,43.40
2017-07-14T09:46:46.804Z,42.90
2017-07-14T09:49:14.888Z,42.70
2017-07-14T09:51:42.971Z,42.90
2017-07-14T09:54:11.832Z,43.20
2017-07-14T09:56:39.917Z,43.10
2017-07-14T09:59:08.020Z,41.30
2017-07-14T10:01:36.201Z,41.30
2017-07-14T10:04:04.288Z,41.00
2017-07-14T10:06:32.381Z,41.40
2017-07-14T10:09:00.524Z,41.30
2017-07-14T10:11:28.620Z,41.30
2017-07-14T10:13:56.843Z,40.90
2017-07-14T10:16:24.929Z,37.60
2017-07-14T10:18:53.794Z,38.00
2017-07-14T10:21:21.882Z,37.80
2017-07-14T10:23:49.967Z,37.40
2017-07-14T10:26:18.120Z,39.00
2017-07-14T10:28:47.052Z,39.70
2017-07-14T10:31:15.140Z,39.60
2017-07-14T10:33:43.259Z,38.90
2017-07-14T10:36:11.401Z,38.50
2017-07-14T10:38:39.532Z,40.20
2017-07-14T10:41:07.731Z,40.20
2017-07-14T10:43:35.846Z,41.10
2017-07-14T10:46:03.971Z,40.90
2017-07-14T10:48:32.075Z,40.50
2017-07-14T10:51:00.184Z,39.50
2017-07-14T10:53:29.077Z,40.50
2017-07-14T10:55:57.921Z,40.40
2017-07-14T10:58:26.027Z,40.40
2017-07-14T11:00:54.149Z,39.90
2017-07-14T11:03:22.249Z,38.20
2017-07-14T11:05:50.345Z,37.00
2017-07-14T11:08:18.450Z,36.80
2017-07-14T11:10:47.304Z,35.60
2017-07-14T11:13:15.396Z,35.60
2017-07-14T11:15:43.473Z,34.80
2017-07-14T11:18:12.329Z,37.00
2017-07-14T11:20:40.406Z,36.90
2017-07-14T11:23:08.511Z,33.90
2017-07-14T11:25:36.624Z,33.50
2017-07-14T11:28:04.708Z,35.10
2017-07-14T11:30:32.797Z,35.20
2017-07-14T11:33:00.884Z,34.10
2017-07-14T11:35:28.980Z,31.80
2017-07-14T11:37:57.842Z,32.40
2017-07-14T11:40:25.931Z,32.30
2017-07-14T11:42:54.016Z,32.10
2017-07-14T11:45:22.122Z,32.40
2017-07-14T11:47:50.201Z,32.40
2017-07-14T11:50:18.287Z,32.90
2017-07-14T11:52:46.390Z,32.90
2017-07-14T11:55:15.277Z,33.30
2017-07-14T11:57:44.154Z,33.60
2017-07-14T12:00:12.274Z,32.80
2017-07-14T12:02:41.108Z,32.10
2017-07-14T12:05:09.186Z,31.90
2017-07-14T12:07:37.275Z,31.60
2017-07-14T12:10:05.370Z,33.00
2017-07-14T12:12:34.277Z,31.70
2017-07-14T12:15:02.365Z,31.60
2017-07-14T12:17:30.561Z,33.50
2017-07-14T12:19:58.649Z,32.90
2017-07-14T12:22:26.743Z,32.90
2017-07-14T12:24:55.605Z,33.00
2017-07-14T12:27:23.708Z,32.90
2017-07-14T12:29:51.799Z,32.50
2017-07-14T12:32:19.884Z,33.00
2017-07-14T12:34:47.985Z,33.00
2017-07-14T12:37:16.083Z,33.10
2017-07-14T12:39:44.173Z,32.50
2017-07-14T12:42:13.967Z,34.00
2017-07-14T12:44:42.052Z,33.90
2017-07-14T12:47:10.135Z,34.20
2017-07-14T12:49:38.996Z,32.30
2017-07-14T12:52:07.088Z,32.20
2017-07-14T12:54:35.995Z,33.10
2017-07-14T12:57:04.847Z,33.00
2017-07-14T12:59:32.925Z,33.00
2017-07-14T13:02:01.007Z,32.10
2017-07-14T13:04:29.093Z,33.30
2017-07-14T13:06:57.196Z,31.40
2017-07-14T13:09:25.268Z,32.70
2017-07-14T13:11:53.374Z,31.90
2017-07-14T13:14:21.510Z,32.10
2017-07-14T13:16:49.621Z,31.70
2017-07-14T13:19:17.713Z,33.00
2017-07-14T13:21:47.897Z,32.70
2017-07-14T13:24:15.991Z,32.70
2017-07-14T13:26:44.073Z,33.30
2017-07-14T13:29:12.170Z,33.20
2017-07-14T13:31:41.027Z,34.30
2017-07-14T13:34:09.117Z,33.40
2017-07-14T13:36:37.197Z,33.50
2017-07-14T13:39:05.279Z,33.10
2017-07-14T13:41:33.367Z,33.30
2017-07-14T13:44:02.243Z,34.50
2017-07-14T13:46:40.985Z,34.70
2017-07-14T13:49:09.079Z,34.60
2017-07-14T13:51:37.191Z,35.30
2017-07-14T13:54:05.312Z,36.10
2017-07-14T13:56:33.387Z,37.80
2017-07-14T13:59:01.483Z,41.80
2017-07-14T14:01:29.588Z,42.50
2017-07-14T14:03:57.690Z,42.40
2017-07-14T14:06:25.809Z,42.50
2017-07-14T14:08:53.873Z,42.30
2017-07-14T14:11:21.949Z,42.30
2017-07-14T14:13:50.058Z,42.30
2017-07-14T14:16:18.131Z,41.10
2017-07-14T14:18:46.431Z,42.60
2017-07-14T14:21:14.606Z,41.30
2017-07-14T14:23:43.452Z,41.20
2017-07-14T14:26:12.646Z,41.10
2017-07-14T14:28:41.541Z,43.20
2017-07-14T14:31:09.612Z,43.20
2017-07-14T14:33:37.705Z,42.70
2017-07-14T14:36:05.775Z,40.60
2017-07-14T14:38:33.845Z,41.10
2017-07-14T14:41:01.920Z,41.10
2017-07-14T14:43:29.998Z,41.60
2017-07-14T14:45:58.076Z,41.00
2017-07-14T14:48:26.155Z,40.10
2017-07-14T14:50:55.007Z,41.50
2017-07-14T14:53:23.079Z,41.40
2017-07-14T14:55:51.167Z,39.40
2017-07-14T14:58:19.234Z,36.20
2017-07-14T15:00:47.302Z,34.30
2017-07-14T15:03:15.377Z,33.40
2017-07-14T15:05:43.461Z,34.60
2017-07-14T15:08:11.560Z,33.50
2017-07-14T15:10:40.424Z,34.20
2017-07-14T15:13:08.543Z,34.10
2017-07-14T15:15:36.636Z,33.70
2017-07-14T15:18:04.719Z,34.60
2017-07-14T15:20:32.878Z,34.20
2017-07-14T15:23:00.965Z,33.50
2017-07-14T15:25:29.027Z,33.50
2017-07-14T15:27:57.121Z,33.50
2017-07-14T15:30:25.205Z,33.50
2017-07-14T15:32:53.297Z,33.50
2017-07-14T15:35:22.158Z,33.30
2017-07-14T15:37:50.225Z,34.00
2017-07-14T15:40:18.367Z,33.10
2017-07-14T15:42:47.167Z,33.20
2017-07-14T15:45:15.242Z,33.20
2017-07-14T15:47:43.320Z,33.30
2017-07-14T15:50:11.405Z,32.50
2017-07-14T15:52:39.483Z,31.90
2017-07-14T15:55:07.579Z,31.60
2017-07-14T15:57:35.763Z,32.90
2017-07-14T16:00:04.612Z,32.80
2017-07-14T16:02:32.714Z,32.50
2017-07-14T16:05:00.780Z,32.00
2017-07-14T16:07:28.869Z,31.80
2017-07-14T16:09:57.720Z,32.60
2017-07-14T16:12:25.792Z,32.60
2017-07-14T16:14:53.861Z,33.40
2017-07-14T16:17:21.950Z,36.20
2017-07-14T16:19:50.025Z,37.30
2017-07-14T16:22:18.134Z,37.60
2017-07-14T16:24:46.216Z,38.00
2017-07-14T16:27:14.319Z,38.60
2017-07-14T16:29:42.383Z,38.80
2017-07-14T16:32:10.457Z,38.10
2017-07-14T16:34:38.527Z,38.60
2017-07-14T16:37:06.609Z,39.70
2017-07-14T16:39:34.699Z,40.60
2017-07-14T16:42:02.785Z,40.50
2017-07-14T16:44:30.861Z,41.20
2017-07-14T16:46:58.927Z,41.20
2017-07-14T16:49:27.011Z,41.10
2017-07-14T16:51:55.078Z,41.30
2017-07-14T16:54:23.180Z,41.20
2017-07-14T16:56:52.024Z,41.10
2017-07-14T16:59:20.111Z,41.10
2017-07-14T17:01:48.184Z,41.20
2017-07-14T17:04:16.421Z,40.30
2017-07-14T17:06:44.497Z,40.20
2017-07-14T17:09:12.566Z,39.40
2017-07-14T17:11:40.652Z,38.90
2017-07-14T17:14:08.721Z,39.40
2017-07-14T17:16:36.802Z,39.10
2017-07-14T17:19:04.879Z,39.10
2017-07-14T17:21:32.952Z,39.50
2017-07-14T17:24:01.020Z,39.20
2017-07-14T17:26:29.108Z,39.50
2017-07-14T17:28:57.377Z,39.50
2017-07-14T17:31:25.446Z,39.80
2017-07-14T17:33:53.521Z,40.10
2017-07-14T17:36:21.620Z,41.20
2017-07-14T17:38:49.688Z,40.70
2017-07-14T17:41:17.761Z,40.30
2017-07-14T17:43:45.836Z,40.00
2017-07-14T17:46:14.681Z,40.10
2017-07-14T17:48:42.764Z,40.00
2017-07-14T17:51:10.856Z,40.50
2017-07-14T17:53:38.942Z,40.40
2017-07-14T17:56:07.003Z,40.80
2017-07-14T17:58:35.091Z,41.10
2017-07-14T18:01:03.156Z,41.10
2017-07-14T18:03:31.230Z,41.10
2017-07-14T18:05:59.307Z,41.10
2017-07-14T18:08:27.372Z,41.10
2017-07-14T18:10:55.443Z,41.00
2017-07-14T18:13:23.545Z,41.00
2017-07-14T18:15:51.619Z,40.90
2017-07-14T18:18:19.688Z,40.90
2017-07-14T18:20:47.762Z,40.90
2017-07-14T18:23:15.878Z,40.90
2017-07-14T18:25:43.948Z,41.50
2017-07-14T18:28:12.016Z,41.20
2017-07-14T18:30:40.104Z,41.20
2017-07-14T18:33:08.168Z,41.50
2017-07-14T18:35:36.308Z,41.30
2017-07-14T18:38:04.396Z,41.40
2017-07-14T18:40:32.467Z,41.40
2017-07-14T18:43:00.551Z,42.10
2017-07-14T18:45:28.624Z,41.30
2017-07-14T18:47:56.707Z,41.30
2017-07-14T18:50:24.785Z,41.60
2017-07-14T18:52:52.884Z,41.10
2017-07-14T18:55:21.724Z,42.00
2017-07-14T18:57:49.863Z,42.00
2017-07-14T19:00:17.945Z,42.00
2017-07-14T19:02:46.031Z,42.00
2017-07-14T19:05:14.096Z,42.10
2017-07-14T19:07:42.159Z,42.50
2017-07-14T19:10:10.241Z,43.20
2017-07-14T19:12:38.312Z,43.70
2017-07-14T19:15:06.378Z,43.90
2017-07-14T19:17:34.449Z,44.20
2017-07-14T19:20:02.523Z,44.40
2017-07-14T19:22:30.595Z,44.90
2017-07-14T19:24:58.672Z,45.30
2017-07-14T19:27:26.730Z,44.90
2017-07-14T19:29:54.812Z,45.80
2017-07-14T19:32:22.887Z,46.10
2017-07-14T19:34:50.982Z,46.40
2017-07-14T19:37:19.820Z,46.70
2017-07-14T19:39:47.891Z,46.70
2017-07-14T19:42:15.968Z,47.10
2017-07-14T19:44:44.041Z,48.00
2017-07-14T19:47:12.112Z,47.50
2017-07-14T19:49:40.181Z,47.30
2017-07-14T19:52:08.252Z,47.40
2017-07-14T19:54:36.317Z,47.30
2017-07-14T19:57:04.396Z,47.70
2017-07-14T19:59:32.460Z,47.90
2017-07-14T20:02:00.549Z,48.00
2017-07-14T20:04:29.383Z,48.60
2017-07-14T20:06:57.464Z,48.60
2017-07-14T20:09:25.532Z,49.20
2017-07-14T20:11:53.621Z,51.00
2017-07-14T20:14:21.772Z,49.20
2017-07-14T20:16:49.846Z,49.10
2017-07-14T20:19:17.925Z,49.10
2017-07-14T20:21:46.000Z,49.00
2017-07-14T20:24:14.091Z,48.90
2017-07-14T20:26:42.162Z,49.10
2017-07-14T20:29:10.249Z,49.40
2017-07-14T20:31:38.311Z,49.90
2017-07-14T20:34:06.387Z,50.00
2017-07-14T20:36:34.463Z,49.90
2017-07-14T20:39:02.555Z,50.20
2017-07-14T20:41:30.622Z,50.40
2017-07-14T20:43:58.692Z,50.50
2017-07-14T20:46:26.768Z,50.70
2017-07-14T20:48:54.845Z,50.80
2017-07-14T20:51:23.738Z,51.30
2017-07-14T20:53:52.588Z,52.90
2017-07-14T20:56:22.661Z,52.70
2017-07-14T20:58:50.822Z,51.10
2017-07-14T21:01:35.497Z,50.80
2017-07-14T21:18:19.251Z,51.20
2017-07-14T21:21:07.289Z,59.50
2017-07-14T21:23:35.593Z,61.10
2017-07-14T21:26:19.997Z,64.80
